메인 페이지
METAR-TAF:

METAR-TAF

공항 :

밴쿠버 국제공항

밴쿠버, 브리티시컬럼비아, 캐나다

위도: 49-11N, 경도: 123-10W, 고도: 3m

현재 날씨관측

예보는 36분 전, 10:00시(UTC)에 발표되었습니다.
동북동3kt
온도 3°C
습도 93%
기압 1014 hPa
시정: 32.2km
고도 6300ft 상공 구름 조금
고도 17000ft 상공 구름 많음
고도 21000ft 상공 흐림

METAR: CYVR 151000Z 07003KT 20SM FEW063 BKN170 OVC210 03/02 A2994 RMK SC1AC4CS3 SLP139

시각: 02:36 (10:36 UTC)

예보

예보는 1 시간 58분 전, 08:38시(UTC)에 발표되었습니다.
예보 대상 시간: 15일 09시부터 16일 12시까지 (UTC)
10kt
시정: 10km
고도 6000ft 상공 구름 보통
고도 24000ft 상공 구름 보통
일시적
15일 09시부터 15일 15시까지 (UTC)
시정: 10km
고도 2000ft 상공 구름 조금
고도 6000ft 상공 구름 많음
약한소나기
전환 중
15일 11시부터 15일 13시까지 (UTC)
동남동8kt
15일 1500시부터 (UTC)
10kt, 순간 최대 풍속 20kt
시정: 10km
고도 6000ft 상공 구름 많음
일시적
15일 15시부터 15일 24시까지 (UTC)
시정: 10km
고도 2000ft 상공 구름 보통
고도 4000ft 상공 구름 많음
약한소나기
16일 0000시부터 (UTC)
15kt, 순간 최대 풍속 25kt
시정: 10km
고도 3000ft 상공 구름 보통
고도 6000ft 상공 흐림
약한비
16일 0800시부터 (UTC)
15kt, 순간 최대 풍속 25kt
시정: 10km
고도 3000ft 상공 흐림
약한비

TAF: CYVR 150838Z 1509/1612 28010KT P6SM SCT060 SCT240 TEMPO 1509/1515 P6SM -SHRA FEW020 BKN060 BECMG 1511/1513 11008KT FM151500 09010G20KT P6SM BKN060 TEMPO 1515/1524 P6SM -SHRA SCT020 BKN040 FM160000 09015G25KT P6SM -RA SCT030 OVC060 FM160800 09015G25KT P6SM -RA OVC030 RMK NXT FCST BY 151200Z

4,000개 이상의 공항 관측 자료 및 예보 (METAR 및 TAF 보고).

지도상에서 검색 가능한 기상관측소가 노란 점과 빨간 점으로 표시되어 있습니다.

기상관측소 명을 보려면 표시 위로 마우스를 이동하세요.

날씨 관측과 예보를 보려면 클릭하세요.

지도 변경 : 확대하려면 엑스 표시가 있는 녹색 버튼, 축소하려면 빼기 표시가 있는 녹색 버튼, 다음 페이지의 지도를 보려면 녹색 화살표를 클릭하세요.


METAR-TAF: